createdAt,value
2019-03-25T00:02:48.413Z,10.21
2019-03-25T00:07:56.149Z,10.10
2019-03-25T00:13:03.777Z,10.63
2019-03-25T00:18:11.441Z,9.22
2019-03-25T00:23:19.027Z,10.89
2019-03-25T00:28:26.701Z,8.25
2019-03-25T00:33:34.311Z,10.86
2019-03-25T00:38:42.005Z,9.00
2019-03-25T00:43:49.587Z,10.76
2019-03-25T00:48:57.241Z,9.86
2019-03-25T00:54:04.829Z,10.67
2019-03-25T00:59:12.541Z,8.65
2019-03-25T01:04:20.180Z,8.27
2019-03-25T01:09:27.820Z,8.86
2019-03-25T01:14:35.411Z,11.64
2019-03-25T01:19:43.032Z,10.06
2019-03-25T01:25:01.149Z,11.42
2019-03-25T01:29:57.899Z,9.18
2019-03-25T01:35:05.528Z,9.84
2019-03-25T01:40:13.211Z,9.31
2019-03-25T01:45:20.826Z,9.36
2019-03-25T01:50:28.530Z,9.48
2019-03-25T01:55:36.137Z,10.65
2019-03-25T02:00:43.787Z,8.36
2019-03-25T02:05:51.393Z,10.36
2019-03-25T02:10:59.098Z,11.73
2019-03-25T02:16:06.683Z,10.06
2019-03-25T02:21:14.385Z,10.67
2019-03-25T02:26:22.011Z,10.66
2019-03-25T02:31:29.676Z,10.40
2019-03-25T02:36:37.305Z,11.20
2019-03-25T02:41:44.941Z,11.70
2019-03-25T02:46:52.573Z,10.58
2019-03-25T02:52:00.240Z,11.56
2019-03-25T02:57:07.838Z,10.24
2019-03-25T03:02:15.485Z,12.16
2019-03-25T03:07:23.089Z,10.26
2019-03-25T03:12:30.792Z,12.76
2019-03-25T03:17:38.385Z,11.32
2019-03-25T03:22:46.086Z,10.98
2019-03-25T03:27:53.717Z,10.16
2019-03-25T03:33:01.356Z,9.73
2019-03-25T03:38:08.946Z,10.15
2019-03-25T03:43:16.583Z,10.23
2019-03-25T03:48:24.175Z,11.00
2019-03-25T03:53:31.886Z,8.57
2019-03-25T03:58:39.478Z,9.00
2019-03-25T04:03:47.117Z,8.86
2019-03-25T04:08:54.706Z,8.48
2019-03-25T04:14:02.404Z,9.57
2019-03-25T04:19:09.844Z,6.71
2019-03-25T04:24:17.512Z,9.74
2019-03-25T04:29:25.166Z,8.97
2019-03-25T04:34:32.774Z,11.23
2019-03-25T04:39:40.360Z,12.35
2019-03-25T04:44:47.974Z,12.19
2019-03-25T04:49:55.617Z,11.06
2019-03-25T04:55:03.279Z,13.33
2019-03-25T05:00:10.905Z,11.32
2019-03-25T05:05:18.555Z,8.40
2019-03-25T05:10:26.119Z,12.41
2019-03-25T05:15:33.770Z,10.13
2019-03-25T05:20:41.404Z,10.24
2019-03-25T05:25:49.097Z,10.82
2019-03-25T05:30:56.695Z,9.96
2019-03-25T05:36:04.512Z,9.19
2019-03-25T05:41:12.142Z,9.44
2019-03-25T05:46:19.785Z,8.96
2019-03-25T05:51:27.373Z,11.65
2019-03-25T05:56:35.085Z,12.49
2019-03-25T06:01:44.190Z,10.32
2019-03-25T06:06:52.058Z,13.12
2019-03-25T06:11:57.119Z,12.30
2019-03-25T06:17:04.808Z,11.21
2019-03-25T06:22:12.409Z,12.69
2019-03-25T06:27:20.053Z,15.28
2019-03-25T06:32:27.653Z,12.53
2019-03-25T06:37:35.285Z,9.43
2019-03-25T06:42:42.910Z,10.05
2019-03-25T06:47:50.565Z,10.33
2019-03-25T06:52:58.159Z,11.12
2019-03-25T06:58:05.900Z,13.54
2019-03-25T07:03:13.511Z,10.71
2019-03-25T07:08:21.195Z,10.81
2019-03-25T07:13:28.794Z,13.40
2019-03-25T07:18:36.423Z,14.58
2019-03-25T07:23:44.008Z,13.94
2019-03-25T07:28:51.647Z,14.57
2019-03-25T07:33:59.241Z,14.96
2019-03-25T07:39:06.891Z,14.59
2019-03-25T07:44:14.517Z,11.07
2019-03-25T07:49:22.148Z,14.03
2019-03-25T07:54:29.776Z,11.70
2019-03-25T07:59:37.454Z,12.07
2019-03-25T08:04:45.050Z,13.87
2019-03-25T08:09:52.762Z,11.88
2019-03-25T08:15:00.446Z,13.98
2019-03-25T08:20:08.097Z,12.17
2019-03-25T08:25:15.733Z,12.70
2019-03-25T08:30:23.427Z,9.33
2019-03-25T08:35:31.031Z,8.32
2019-03-25T08:40:38.725Z,8.32
2019-03-25T08:45:46.346Z,9.60
2019-03-25T08:50:54.121Z,8.10
2019-03-25T08:56:01.725Z,8.27
2019-03-25T09:01:09.405Z,10.42
2019-03-25T09:06:17.009Z,7.87
2019-03-25T09:11:24.722Z,9.83
2019-03-25T09:16:32.349Z,4.17
2019-03-25T09:21:39.987Z,4.75
2019-03-25T09:26:47.605Z,3.90
2019-03-25T09:31:55.311Z,7.15
2019-03-25T09:37:02.903Z,5.93
2019-03-25T09:42:10.595Z,4.90
2019-03-25T09:47:18.243Z,6.07
2019-03-25T09:52:37.917Z,6.39
2019-03-25T09:57:33.078Z,7.26
2019-03-25T10:02:40.694Z,7.41
2019-03-25T10:07:48.299Z,9.29
2019-03-25T10:12:56.899Z,6.96
2019-03-25T10:18:03.079Z,10.10
2019-03-25T10:23:10.740Z,11.42
2019-03-25T10:28:18.355Z,7.50
2019-03-25T10:33:26.065Z,8.76
2019-03-25T10:38:33.711Z,5.99
2019-03-25T10:43:41.335Z,8.37
2019-03-25T10:48:48.923Z,7.80
2019-03-25T10:53:56.641Z,5.07
2019-03-25T10:59:04.254Z,7.40
2019-03-25T11:04:12.013Z,5.07
2019-03-25T11:09:19.636Z,5.77
2019-03-25T11:14:27.306Z,5.24
2019-03-25T11:19:34.931Z,5.76
2019-03-25T11:24:42.576Z,7.20
2019-03-25T11:29:50.186Z,7.25
2019-03-25T11:34:57.835Z,5.17
2019-03-25T11:40:05.445Z,5.89
2019-03-25T11:45:13.076Z,9.90
2019-03-25T11:50:20.659Z,5.16
2019-03-25T11:55:28.351Z,8.42
2019-03-25T12:00:35.978Z,7.58
2019-03-25T12:05:43.762Z,6.27
2019-03-25T12:10:51.384Z,5.18
2019-03-25T12:15:59.156Z,6.41
2019-03-25T12:21:06.787Z,5.47
2019-03-25T12:26:14.490Z,6.54
2019-03-25T12:31:22.066Z,12.89
2019-03-25T12:36:29.719Z,4.86
2019-03-25T12:41:37.298Z,6.26
2019-03-25T12:46:44.952Z,4.48
2019-03-25T12:51:52.557Z,4.67
2019-03-25T12:57:00.228Z,6.82
2019-03-25T13:02:07.829Z,8.55
2019-03-25T13:07:15.500Z,6.56
2019-03-25T13:12:23.118Z,7.30
2019-03-25T13:17:30.720Z,7.52
2019-03-25T13:22:38.317Z,5.09
2019-03-25T13:27:46.168Z,7.67
2019-03-25T13:32:53.780Z,7.02
2019-03-25T13:38:01.422Z,6.74
2019-03-25T13:43:09.009Z,5.79
2019-03-25T13:48:16.673Z,8.02
2019-03-25T13:53:24.262Z,8.43
2019-03-25T13:58:31.947Z,8.06
2019-03-25T14:03:39.559Z,4.75
2019-03-25T14:08:47.300Z,5.65
2019-03-25T14:13:54.918Z,7.59
2019-03-25T14:19:02.573Z,7.92
2019-03-25T14:24:10.041Z,6.65
2019-03-25T14:29:17.697Z,5.66
2019-03-25T14:34:25.309Z,5.59
2019-03-25T14:39:32.947Z,4.81
2019-03-25T14:44:40.597Z,8.62
2019-03-25T14:49:48.441Z,9.69
2019-03-25T14:54:56.070Z,8.73
2019-03-25T15:00:03.842Z,10.20
2019-03-25T15:05:11.427Z,8.83
2019-03-25T15:10:19.090Z,5.78
2019-03-25T15:15:26.684Z,8.67
2019-03-25T15:20:34.367Z,7.43
2019-03-25T15:25:41.974Z,8.83
2019-03-25T15:30:49.637Z,8.78
2019-03-25T15:35:57.222Z,7.66
2019-03-25T15:41:05.050Z,7.46
2019-03-25T15:46:12.692Z,6.14
2019-03-25T15:51:20.394Z,8.16
2019-03-25T15:56:27.996Z,7.49
2019-03-25T16:01:35.652Z,5.98
2019-03-25T16:06:43.265Z,5.93
2019-03-25T16:11:50.959Z,11.88
2019-03-25T16:16:58.597Z,7.53
2019-03-25T16:22:06.280Z,9.03
2019-03-25T16:27:13.881Z,7.30
2019-03-25T16:32:21.545Z,5.54
2019-03-25T16:37:29.163Z,5.46
2019-03-25T16:42:36.837Z,3.81
2019-03-25T16:47:44.494Z,6.20
2019-03-25T16:52:52.285Z,6.76
2019-03-25T16:57:59.933Z,7.02
2019-03-25T17:03:07.629Z,7.23
2019-03-25T17:08:15.232Z,7.30
2019-03-25T17:13:23.001Z,7.13
2019-03-25T17:18:30.661Z,5.40
2019-03-25T17:23:38.316Z,6.06
2019-03-25T17:28:45.960Z,7.69
2019-03-25T17:33:53.651Z,6.64
2019-03-25T17:39:01.314Z,5.54
2019-03-25T17:44:08.993Z,6.67
2019-03-25T17:49:16.644Z,5.74
2019-03-25T17:54:24.327Z,6.98
2019-03-25T17:59:31.981Z,7.11
2019-03-25T18:04:39.785Z,5.72
2019-03-25T18:09:47.380Z,7.51
2019-03-25T18:14:55.053Z,8.05
2019-03-25T18:20:02.651Z,7.44
2019-03-25T18:25:10.386Z,9.66
2019-03-25T18:30:18.237Z,8.19
2019-03-25T18:35:25.928Z,8.11
2019-03-25T18:40:33.531Z,7.79
2019-03-25T18:45:41.170Z,8.56
2019-03-25T18:50:48.791Z,7.29
2019-03-25T18:55:56.464Z,8.85
2019-03-25T19:01:04.062Z,5.67
2019-03-25T19:06:11.737Z,8.19
2019-03-25T19:11:30.399Z,8.07
2019-03-25T19:16:26.573Z,7.59
2019-03-25T19:21:34.191Z,6.49
2019-03-25T19:26:41.923Z,7.35
2019-03-25T19:31:49.565Z,6.86
2019-03-25T19:36:57.231Z,9.52
2019-03-25T19:42:04.895Z,8.55
2019-03-25T19:47:12.605Z,7.90
2019-03-25T19:52:20.321Z,8.85
2019-03-25T19:57:28.418Z,8.93
2019-03-25T20:02:35.460Z,8.94
2019-03-25T20:07:43.437Z,8.96
2019-03-25T20:12:51.164Z,9.08
2019-03-25T20:17:58.960Z,9.23
2019-03-25T20:23:06.730Z,8.17
2019-03-25T20:28:14.661Z,8.04
2019-03-25T20:33:22.365Z,7.27
2019-03-25T20:38:30.083Z,10.39
2019-03-25T20:43:37.589Z,10.18
2019-03-25T20:48:45.295Z,9.71
2019-03-25T20:53:53.213Z,9.34
2019-03-25T20:59:01.081Z,9.88
2019-03-25T21:04:08.796Z,10.04
2019-03-25T21:09:16.663Z,10.15
2019-03-25T21:14:24.297Z,8.87
2019-03-25T21:19:32.028Z,8.57
2019-03-25T21:24:39.621Z,10.01
2019-03-25T21:29:47.330Z,8.10
2019-03-25T21:34:54.983Z,8.57
2019-03-25T21:40:02.622Z,10.42
2019-03-25T21:45:10.317Z,7.25
2019-03-25T21:50:17.999Z,11.14
2019-03-25T21:55:25.598Z,9.81
2019-03-25T22:00:33.258Z,11.34
2019-03-25T22:05:40.863Z,8.96
2019-03-25T22:10:48.522Z,10.04
2019-03-25T22:15:56.120Z,9.48
2019-03-25T22:21:03.822Z,11.56
2019-03-25T22:26:11.423Z,11.15
2019-03-25T22:31:19.422Z,10.90
2019-03-25T22:36:27.043Z,10.81
2019-03-25T22:41:35.154Z,9.78
2019-03-25T22:46:41.637Z,13.04
2019-03-25T22:51:49.251Z,9.78
2019-03-25T22:56:56.845Z,12.16
2019-03-25T23:02:04.533Z,10.99
2019-03-25T23:07:12.125Z,10.37
2019-03-25T23:12:19.823Z,10.03
2019-03-25T23:17:27.449Z,11.07
2019-03-25T23:22:35.119Z,10.79
2019-03-25T23:27:42.735Z,11.11
2019-03-25T23:32:50.378Z,10.33
2019-03-25T23:37:57.995Z,13.46
2019-03-25T23:43:05.687Z,11.27
2019-03-25T23:48:13.270Z,10.58
2019-03-25T23:53:20.946Z,10.30
2019-03-25T23:58:28.532Z,11.15
